sensor_id;sensor_type;location;lat;lon;timestamp;temperature;humidity
54202;DHT22;40108;53.152;5.844;2024-02-23T00:00:04;5.20;94.20
54202;DHT22;40108;53.152;5.844;2024-02-23T00:02:34;5.20;93.90
54202;DHT22;40108;53.152;5.844;2024-02-23T00:04:59;5.20;93.70
54202;DHT22;40108;53.152;5.844;2024-02-23T00:07:25;5.20;93.50
54202;DHT22;40108;53.152;5.844;2024-02-23T00:09:50;5.20;93.40
54202;DHT22;40108;53.152;5.844;2024-02-23T00:12:16;5.20;93.30
54202;DHT22;40108;53.152;5.844;2024-02-23T00:14:42;5.20;93.30
54202;DHT22;40108;53.152;5.844;2024-02-23T00:17:07;5.20;93.30
54202;DHT22;40108;53.152;5.844;2024-02-23T00:19:33;5.20;93.20
54202;DHT22;40108;53.152;5.844;2024-02-23T00:21:59;5.20;93.20
54202;DHT22;40108;53.152;5.844;2024-02-23T00:24:28;5.20;92.90
54202;DHT22;40108;53.152;5.844;2024-02-23T00:26:54;5.20;92.40
54202;DHT22;40108;53.152;5.844;2024-02-23T00:29:20;5.10;92.40
54202;DHT22;40108;53.152;5.844;2024-02-23T00:31:47;5.10;92.30
54202;DHT22;40108;53.152;5.844;2024-02-23T00:34:12;5.00;92.30
54202;DHT22;40108;53.152;5.844;2024-02-23T00:36:40;4.90;92.30
54202;DHT22;40108;53.152;5.844;2024-02-23T00:39:08;4.90;92.60
54202;DHT22;40108;53.152;5.844;2024-02-23T00:41:34;5.00;92.80
54202;DHT22;40108;53.152;5.844;2024-02-23T00:44:01;5.00;93.00
54202;DHT22;40108;53.152;5.844;2024-02-23T00:46:26;5.00;93.20
54202;DHT22;40108;53.152;5.844;2024-02-23T00:48:52;5.00;93.40
54202;DHT22;40108;53.152;5.844;2024-02-23T00:51:18;5.00;93.50
54202;DHT22;40108;53.152;5.844;2024-02-23T00:53:43;5.10;93.70
54202;DHT22;40108;53.152;5.844;2024-02-23T00:56:09;5.10;93.80
54202;DHT22;40108;53.152;5.844;2024-02-23T00:58:35;5.20;93.80
54202;DHT22;40108;53.152;5.844;2024-02-23T01:01:00;5.20;93.70
54202;DHT22;40108;53.152;5.844;2024-02-23T01:03:26;5.30;93.70
54202;DHT22;40108;53.152;5.844;2024-02-23T01:05:52;5.40;93.70
54202;DHT22;40108;53.152;5.844;2024-02-23T01:08:17;5.40;93.50
54202;DHT22;40108;53.152;5.844;2024-02-23T01:10:43;5.50;93.50
54202;DHT22;40108;53.152;5.844;2024-02-23T01:13:09;5.60;93.30
54202;DHT22;40108;53.152;5.844;2024-02-23T01:15:35;5.60;93.10
54202;DHT22;40108;53.152;5.844;2024-02-23T01:18:00;5.60;92.70
54202;DHT22;40108;53.152;5.844;2024-02-23T01:20:26;5.60;92.50
54202;DHT22;40108;53.152;5.844;2024-02-23T01:22:52;5.70;92.40
54202;DHT22;40108;53.152;5.844;2024-02-23T01:25:17;5.70;92.00
54202;DHT22;40108;53.152;5.844;2024-02-23T01:27:43;5.70;91.50
54202;DHT22;40108;53.152;5.844;2024-02-23T01:30:12;5.70;91.30
54202;DHT22;40108;53.152;5.844;2024-02-23T01:32:38;5.70;91.10
54202;DHT22;40108;53.152;5.844;2024-02-23T01:35:05;5.70;90.70
54202;DHT22;40108;53.152;5.844;2024-02-23T01:37:31;5.70;90.50
54202;DHT22;40108;53.152;5.844;2024-02-23T01:39:58;5.70;90.50
54202;DHT22;40108;53.152;5.844;2024-02-23T01:42:25;5.70;90.30
54202;DHT22;40108;53.152;5.844;2024-02-23T01:44:51;5.70;90.30
54202;DHT22;40108;53.152;5.844;2024-02-23T01:47:17;5.70;90.30
54202;DHT22;40108;53.152;5.844;2024-02-23T01:49:45;5.70;90.30
54202;DHT22;40108;53.152;5.844;2024-02-23T01:52:13;5.70;90.10
54202;DHT22;40108;53.152;5.844;2024-02-23T01:54:39;5.70;90.10
54202;DHT22;40108;53.152;5.844;2024-02-23T01:57:06;5.70;90.10
54202;DHT22;40108;53.152;5.844;2024-02-23T01:59:32;5.70;90.00
54202;DHT22;40108;53.152;5.844;2024-02-23T02:01:58;5.70;90.00
54202;DHT22;40108;53.152;5.844;2024-02-23T02:04:23;5.70;90.00
54202;DHT22;40108;53.152;5.844;2024-02-23T02:06:49;5.70;90.00
54202;DHT22;40108;53.152;5.844;2024-02-23T02:09:15;5.70;90.00
54202;DHT22;40108;53.152;5.844;2024-02-23T02:11:47;5.70;90.10
54202;DHT22;40108;53.152;5.844;2024-02-23T02:14:14;5.80;90.30
54202;DHT22;40108;53.152;5.844;2024-02-23T02:16:40;5.80;90.50
54202;DHT22;40108;53.152;5.844;2024-02-23T02:19:06;5.80;90.70
54202;DHT22;40108;53.152;5.844;2024-02-23T02:21:32;5.80;90.70
54202;DHT22;40108;53.152;5.844;2024-02-23T02:23:58;5.80;90.50
54202;DHT22;40108;53.152;5.844;2024-02-23T02:26:24;5.80;90.30
54202;DHT22;40108;53.152;5.844;2024-02-23T02:28:50;5.80;90.30
54202;DHT22;40108;53.152;5.844;2024-02-23T02:31:16;5.70;90.20
54202;DHT22;40108;53.152;5.844;2024-02-23T02:33:41;5.70;89.90
54202;DHT22;40108;53.152;5.844;2024-02-23T02:36:07;5.70;89.70
54202;DHT22;40108;53.152;5.844;2024-02-23T02:38:33;5.70;89.50
54202;DHT22;40108;53.152;5.844;2024-02-23T02:40:59;5.60;89.40
54202;DHT22;40108;53.152;5.844;2024-02-23T02:43:26;5.70;89.30
54202;DHT22;40108;53.152;5.844;2024-02-23T02:45:52;5.70;89.40
54202;DHT22;40108;53.152;5.844;2024-02-23T02:48:18;5.60;89.50
54202;DHT22;40108;53.152;5.844;2024-02-23T02:50:44;5.50;89.30
54202;DHT22;40108;53.152;5.844;2024-02-23T02:53:10;5.50;89.10
54202;DHT22;40108;53.152;5.844;2024-02-23T02:55:36;5.40;89.20
54202;DHT22;40108;53.152;5.844;2024-02-23T02:58:02;5.40;89.40
54202;DHT22;40108;53.152;5.844;2024-02-23T03:00:28;5.40;89.60
54202;DHT22;40108;53.152;5.844;2024-02-23T03:02:54;5.40;89.80
54202;DHT22;40108;53.152;5.844;2024-02-23T03:05:20;5.50;90.00
54202;DHT22;40108;53.152;5.844;2024-02-23T03:07:45;5.40;90.20
54202;DHT22;40108;53.152;5.844;2024-02-23T03:10:11;5.40;90.20
54202;DHT22;40108;53.152;5.844;2024-02-23T03:12:37;5.40;90.20
54202;DHT22;40108;53.152;5.844;2024-02-23T03:15:03;5.40;90.00
54202;DHT22;40108;53.152;5.844;2024-02-23T03:17:29;5.40;89.90
54202;DHT22;40108;53.152;5.844;2024-02-23T03:19:55;5.40;89.90
54202;DHT22;40108;53.152;5.844;2024-02-23T03:22:20;5.30;89.90
54202;DHT22;40108;53.152;5.844;2024-02-23T03:24:46;5.30;89.90
54202;DHT22;40108;53.152;5.844;2024-02-23T03:27:12;5.30;90.00
54202;DHT22;40108;53.152;5.844;2024-02-23T03:29:38;5.40;89.90
54202;DHT22;40108;53.152;5.844;2024-02-23T03:32:05;5.30;89.90
54202;DHT22;40108;53.152;5.844;2024-02-23T03:34:31;5.30;89.90
54202;DHT22;40108;53.152;5.844;2024-02-23T03:36:56;5.30;89.90
54202;DHT22;40108;53.152;5.844;2024-02-23T03:39:24;5.30;90.00
54202;DHT22;40108;53.152;5.844;2024-02-23T03:41:49;5.30;89.90
54202;DHT22;40108;53.152;5.844;2024-02-23T03:44:15;5.30;90.00
54202;DHT22;40108;53.152;5.844;2024-02-23T03:46:41;5.30;90.00
54202;DHT22;40108;53.152;5.844;2024-02-23T03:49:06;5.30;90.00
54202;DHT22;40108;53.152;5.844;2024-02-23T03:51:32;5.30;89.90
54202;DHT22;40108;53.152;5.844;2024-02-23T03:54:00;5.30;90.00
54202;DHT22;40108;53.152;5.844;2024-02-23T03:56:26;5.20;90.00
54202;DHT22;40108;53.152;5.844;2024-02-23T03:58:51;5.20;90.10
54202;DHT22;40108;53.152;5.844;2024-02-23T04:01:17;5.20;90.20
54202;DHT22;40108;53.152;5.844;2024-02-23T04:03:43;5.20;90.20
54202;DHT22;40108;53.152;5.844;2024-02-23T04:06:08;5.20;90.20
54202;DHT22;40108;53.152;5.844;2024-02-23T04:08:34;5.20;90.10
54202;DHT22;40108;53.152;5.844;2024-02-23T04:11:00;5.20;90.10
54202;DHT22;40108;53.152;5.844;2024-02-23T04:13:25;5.10;90.10
54202;DHT22;40108;53.152;5.844;2024-02-23T04:15:51;5.10;90.10
54202;DHT22;40108;53.152;5.844;2024-02-23T04:18:16;5.10;90.10
54202;DHT22;40108;53.152;5.844;2024-02-23T04:20:42;5.10;90.10
54202;DHT22;40108;53.152;5.844;2024-02-23T04:23:08;5.00;90.10
54202;DHT22;40108;53.152;5.844;2024-02-23T04:25:33;5.00;90.10
54202;DHT22;40108;53.152;5.844;2024-02-23T04:27:59;5.00;90.20
54202;DHT22;40108;53.152;5.844;2024-02-23T04:30:25;5.00;90.20
54202;DHT22;40108;53.152;5.844;2024-02-23T04:32:50;4.90;90.10
54202;DHT22;40108;53.152;5.844;2024-02-23T04:35:16;4.90;90.20
54202;DHT22;40108;53.152;5.844;2024-02-23T04:37:45;4.90;90.20
54202;DHT22;40108;53.152;5.844;2024-02-23T04:40:11;4.90;90.30
54202;DHT22;40108;53.152;5.844;2024-02-23T04:42:37;4.80;90.20
54202;DHT22;40108;53.152;5.844;2024-02-23T04:45:04;4.90;90.30
54202;DHT22;40108;53.152;5.844;2024-02-23T04:47:30;4.90;90.30
54202;DHT22;40108;53.152;5.844;2024-02-23T04:49:56;4.80;90.30
54202;DHT22;40108;53.152;5.844;2024-02-23T04:52:21;4.80;90.30
54202;DHT22;40108;53.152;5.844;2024-02-23T04:54:47;4.80;90.30
54202;DHT22;40108;53.152;5.844;2024-02-23T04:57:13;4.90;90.30
54202;DHT22;40108;53.152;5.844;2024-02-23T04:59:38;4.90;90.30
54202;DHT22;40108;53.152;5.844;2024-02-23T05:02:04;4.90;90.40
54202;DHT22;40108;53.152;5.844;2024-02-23T05:04:30;4.90;90.40
54202;DHT22;40108;53.152;5.844;2024-02-23T05:06:55;4.90;90.40
54202;DHT22;40108;53.152;5.844;2024-02-23T05:09:21;4.90;90.50
54202;DHT22;40108;53.152;5.844;2024-02-23T05:11:47;4.90;90.50
54202;DHT22;40108;53.152;5.844;2024-02-23T05:14:13;4.90;90.40
54202;DHT22;40108;53.152;5.844;2024-02-23T05:16:39;4.90;90.40
54202;DHT22;40108;53.152;5.844;2024-02-23T05:19:05;4.90;90.40
54202;DHT22;40108;53.152;5.844;2024-02-23T05:21:30;4.90;90.40
54202;DHT22;40108;53.152;5.844;2024-02-23T05:23:56;4.90;90.50
54202;DHT22;40108;53.152;5.844;2024-02-23T05:26:22;4.90;90.50
54202;DHT22;40108;53.152;5.844;2024-02-23T05:28:48;4.90;90.40
54202;DHT22;40108;53.152;5.844;2024-02-23T05:31:14;4.90;90.40
54202;DHT22;40108;53.152;5.844;2024-02-23T05:33:39;4.90;90.50
54202;DHT22;40108;53.152;5.844;2024-02-23T05:36:05;4.90;90.50
54202;DHT22;40108;53.152;5.844;2024-02-23T05:38:31;4.90;90.60
54202;DHT22;40108;53.152;5.844;2024-02-23T05:40:57;4.80;90.60
54202;DHT22;40108;53.152;5.844;2024-02-23T05:43:22;4.80;90.70
54202;DHT22;40108;53.152;5.844;2024-02-23T05:45:48;4.80;90.70
54202;DHT22;40108;53.152;5.844;2024-02-23T05:48:15;4.80;90.70
54202;DHT22;40108;53.152;5.844;2024-02-23T05:50:40;4.80;90.70
54202;DHT22;40108;53.152;5.844;2024-02-23T05:53:06;4.80;90.90
54202;DHT22;40108;53.152;5.844;2024-02-23T05:55:31;4.70;91.10
54202;DHT22;40108;53.152;5.844;2024-02-23T05:57:57;4.70;91.30
54202;DHT22;40108;53.152;5.844;2024-02-23T06:00:23;4.70;91.40
54202;DHT22;40108;53.152;5.844;2024-02-23T06:02:48;4.70;91.50
54202;DHT22;40108;53.152;5.844;2024-02-23T06:05:14;4.70;91.50
54202;DHT22;40108;53.152;5.844;2024-02-23T06:07:41;4.70;91.60
54202;DHT22;40108;53.152;5.844;2024-02-23T06:10:07;4.70;91.70
54202;DHT22;40108;53.152;5.844;2024-02-23T06:12:33;4.70;91.70
54202;DHT22;40108;53.152;5.844;2024-02-23T06:14:58;4.80;91.80
54202;DHT22;40108;53.152;5.844;2024-02-23T06:17:24;4.70;91.90
54202;DHT22;40108;53.152;5.844;2024-02-23T06:19:50;4.80;92.10
54202;DHT22;40108;53.152;5.844;2024-02-23T06:22:18;5.00;92.70
54202;DHT22;40108;53.152;5.844;2024-02-23T06:24:47;5.10;93.00
54202;DHT22;40108;53.152;5.844;2024-02-23T06:27:12;5.20;93.10
54202;DHT22;40108;53.152;5.844;2024-02-23T06:29:38;5.30;93.10
54202;DHT22;40108;53.152;5.844;2024-02-23T06:32:04;5.30;93.10
54202;DHT22;40108;53.152;5.844;2024-02-23T06:34:30;5.30;93.10
54202;DHT22;40108;53.152;5.844;2024-02-23T06:36:56;5.40;93.10
54202;DHT22;40108;53.152;5.844;2024-02-23T06:39:21;5.40;93.00
54202;DHT22;40108;53.152;5.844;2024-02-23T06:41:47;5.30;92.90
54202;DHT22;40108;53.152;5.844;2024-02-23T06:44:13;5.40;92.70
54202;DHT22;40108;53.152;5.844;2024-02-23T06:46:39;5.30;92.40
54202;DHT22;40108;53.152;5.844;2024-02-23T06:49:04;5.30;92.20
54202;DHT22;40108;53.152;5.844;2024-02-23T06:51:31;5.20;92.10
54202;DHT22;40108;53.152;5.844;2024-02-23T06:53:57;5.20;92.20
54202;DHT22;40108;53.152;5.844;2024-02-23T06:56:23;5.20;92.30
54202;DHT22;40108;53.152;5.844;2024-02-23T06:58:49;5.20;92.40
54202;DHT22;40108;53.152;5.844;2024-02-23T07:01:14;5.10;92.40
54202;DHT22;40108;53.152;5.844;2024-02-23T07:03:40;5.20;92.40
54202;DHT22;40108;53.152;5.844;2024-02-23T07:06:10;5.10;92.40
54202;DHT22;40108;53.152;5.844;2024-02-23T07:08:36;5.10;92.50
54202;DHT22;40108;53.152;5.844;2024-02-23T07:11:02;5.10;92.50
54202;DHT22;40108;53.152;5.844;2024-02-23T07:13:28;5.10;92.60
54202;DHT22;40108;53.152;5.844;2024-02-23T07:15:53;5.20;92.70
54202;DHT22;40108;53.152;5.844;2024-02-23T07:18:21;5.20;92.70
54202;DHT22;40108;53.152;5.844;2024-02-23T07:20:47;5.20;92.80
54202;DHT22;40108;53.152;5.844;2024-02-23T07:23:13;5.30;92.80
54202;DHT22;40108;53.152;5.844;2024-02-23T07:25:41;5.30;92.70
54202;DHT22;40108;53.152;5.844;2024-02-23T07:28:07;5.40;92.60
54202;DHT22;40108;53.152;5.844;2024-02-23T07:30:33;5.50;92.50
54202;DHT22;40108;53.152;5.844;2024-02-23T07:33:00;5.40;92.50
54202;DHT22;40108;53.152;5.844;2024-02-23T07:35:26;5.50;92.30
54202;DHT22;40108;53.152;5.844;2024-02-23T07:37:52;5.50;92.10
54202;DHT22;40108;53.152;5.844;2024-02-23T07:40:17;5.50;92.20
54202;DHT22;40108;53.152;5.844;2024-02-23T07:42:43;5.50;92.40
54202;DHT22;40108;53.152;5.844;2024-02-23T07:45:09;5.60;92.30
54202;DHT22;40108;53.152;5.844;2024-02-23T07:47:36;5.70;92.20
54202;DHT22;40108;53.152;5.844;2024-02-23T07:50:02;5.70;92.10
54202;DHT22;40108;53.152;5.844;2024-02-23T07:52:28;5.70;91.90
54202;DHT22;40108;53.152;5.844;2024-02-23T07:54:54;5.70;91.80
54202;DHT22;40108;53.152;5.844;2024-02-23T07:57:20;5.70;91.70
54202;DHT22;40108;53.152;5.844;2024-02-23T07:59:46;5.70;91.60
54202;DHT22;40108;53.152;5.844;2024-02-23T08:02:12;5.70;91.60
54202;DHT22;40108;53.152;5.844;2024-02-23T08:04:37;5.70;91.60
54202;DHT22;40108;53.152;5.844;2024-02-23T08:07:04;5.70;91.50
54202;DHT22;40108;53.152;5.844;2024-02-23T08:09:30;5.70;91.50
54202;DHT22;40108;53.152;5.844;2024-02-23T08:11:55;5.70;91.40
54202;DHT22;40108;53.152;5.844;2024-02-23T08:14:21;5.70;91.40
54202;DHT22;40108;53.152;5.844;2024-02-23T08:16:47;5.70;91.50
54202;DHT22;40108;53.152;5.844;2024-02-23T08:19:13;5.70;91.70
54202;DHT22;40108;53.152;5.844;2024-02-23T08:21:38;5.60;91.80
54202;DHT22;40108;53.152;5.844;2024-02-23T08:24:05;5.60;91.80
54202;DHT22;40108;53.152;5.844;2024-02-23T08:26:31;5.60;91.60
54202;DHT22;40108;53.152;5.844;2024-02-23T08:28:56;5.60;91.50
54202;DHT22;40108;53.152;5.844;2024-02-23T08:31:22;5.60;91.60
54202;DHT22;40108;53.152;5.844;2024-02-23T08:33:48;5.60;91.50
54202;DHT22;40108;53.152;5.844;2024-02-23T08:36:13;5.60;91.60
54202;DHT22;40108;53.152;5.844;2024-02-23T08:38:39;5.60;91.50
54202;DHT22;40108;53.152;5.844;2024-02-23T08:41:05;5.60;91.50
54202;DHT22;40108;53.152;5.844;2024-02-23T08:43:30;5.60;91.20
54202;DHT22;40108;53.152;5.844;2024-02-23T08:45:56;5.60;91.30
54202;DHT22;40108;53.152;5.844;2024-02-23T08:48:21;5.60;91.00
54202;DHT22;40108;53.152;5.844;2024-02-23T08:50:47;5.60;90.90
54202;DHT22;40108;53.152;5.844;2024-02-23T08:53:13;5.70;90.80
54202;DHT22;40108;53.152;5.844;2024-02-23T08:55:38;5.70;90.70
54202;DHT22;40108;53.152;5.844;2024-02-23T08:58:04;5.70;90.30
54202;DHT22;40108;53.152;5.844;2024-02-23T09:00:31;5.70;90.20
54202;DHT22;40108;53.152;5.844;2024-02-23T09:02:57;5.70;90.00
54202;DHT22;40108;53.152;5.844;2024-02-23T09:05:23;5.70;89.80
54202;DHT22;40108;53.152;5.844;2024-02-23T09:07:48;5.70;89.80
54202;DHT22;40108;53.152;5.844;2024-02-23T09:10:14;5.70;90.00
54202;DHT22;40108;53.152;5.844;2024-02-23T09:12:40;5.70;89.90
54202;DHT22;40108;53.152;5.844;2024-02-23T09:15:06;5.70;89.30
54202;DHT22;40108;53.152;5.844;2024-02-23T09:17:33;5.70;89.40
54202;DHT22;40108;53.152;5.844;2024-02-23T09:19:58;5.70;89.30
54202;DHT22;40108;53.152;5.844;2024-02-23T09:22:24;5.70;89.00
54202;DHT22;40108;53.152;5.844;2024-02-23T09:24:50;5.70;88.60
54202;DHT22;40108;53.152;5.844;2024-02-23T09:27:16;5.70;88.50
54202;DHT22;40108;53.152;5.844;2024-02-23T09:29:42;5.80;88.10
54202;DHT22;40108;53.152;5.844;2024-02-23T09:32:08;5.80;88.10
54202;DHT22;40108;53.152;5.844;2024-02-23T09:34:33;5.80;88.40
54202;DHT22;40108;53.152;5.844;2024-02-23T09:36:59;5.90;88.30
54202;DHT22;40108;53.152;5.844;2024-02-23T09:39:25;5.90;87.70
54202;DHT22;40108;53.152;5.844;2024-02-23T09:41:55;5.90;87.70
54202;DHT22;40108;53.152;5.844;2024-02-23T09:44:22;6.00;88.50
54202;DHT22;40108;53.152;5.844;2024-02-23T09:46:48;6.00;89.00
54202;DHT22;40108;53.152;5.844;2024-02-23T09:49:15;5.90;89.50
54202;DHT22;40108;53.152;5.844;2024-02-23T09:51:43;5.80;90.70
54202;DHT22;40108;53.152;5.844;2024-02-23T09:54:09;5.70;91.00
54202;DHT22;40108;53.152;5.844;2024-02-23T09:56:35;5.50;91.70
54202;DHT22;40108;53.152;5.844;2024-02-23T09:59:03;5.40;92.20
54202;DHT22;40108;53.152;5.844;2024-02-23T10:01:31;5.30;93.00
54202;DHT22;40108;53.152;5.844;2024-02-23T10:04:00;5.20;92.90
54202;DHT22;40108;53.152;5.844;2024-02-23T10:06:27;5.20;93.50
54202;DHT22;40108;53.152;5.844;2024-02-23T10:08:56;5.20;93.70
54202;DHT22;40108;53.152;5.844;2024-02-23T10:11:22;5.20;93.50
54202;DHT22;40108;53.152;5.844;2024-02-23T10:13:48;5.20;93.50
54202;DHT22;40108;53.152;5.844;2024-02-23T10:16:21;5.30;93.60
54202;DHT22;40108;53.152;5.844;2024-02-23T10:18:50;5.40;93.50
54202;DHT22;40108;53.152;5.844;2024-02-23T10:21:16;5.40;93.60
54202;DHT22;40108;53.152;5.844;2024-02-23T10:23:43;5.50;93.30
54202;DHT22;40108;53.152;5.844;2024-02-23T10:26:10;5.50;92.90
54202;DHT22;40108;53.152;5.844;2024-02-23T10:28:38;5.60;92.90
54202;DHT22;40108;53.152;5.844;2024-02-23T10:31:05;5.70;92.90
54202;DHT22;40108;53.152;5.844;2024-02-23T10:33:31;5.70;92.80
54202;DHT22;40108;53.152;5.844;2024-02-23T10:35:57;5.70;92.60
54202;DHT22;40108;53.152;5.844;2024-02-23T10:38:24;5.70;92.20
54202;DHT22;40108;53.152;5.844;2024-02-23T10:40:55;5.70;92.50
54202;DHT22;40108;53.152;5.844;2024-02-23T10:43:36;5.80;92.40
54202;DHT22;40108;53.152;5.844;2024-02-23T10:46:05;5.80;92.70
54202;DHT22;40108;53.152;5.844;2024-02-23T10:48:34;5.80;92.50
54202;DHT22;40108;53.152;5.844;2024-02-23T10:51:01;5.80;92.70
54202;DHT22;40108;53.152;5.844;2024-02-23T10:53:28;5.90;92.50
54202;DHT22;40108;53.152;5.844;2024-02-23T10:55:57;5.90;92.40
54202;DHT22;40108;53.152;5.844;2024-02-23T10:58:26;5.90;92.50
54202;DHT22;40108;53.152;5.844;2024-02-23T11:00:53;5.90;92.00
54202;DHT22;40108;53.152;5.844;2024-02-23T11:03:23;6.00;92.10
54202;DHT22;40108;53.152;5.844;2024-02-23T11:05:48;6.10;92.00
54202;DHT22;40108;53.152;5.844;2024-02-23T11:08:18;6.10;92.10
54202;DHT22;40108;53.152;5.844;2024-02-23T11:10:51;6.10;91.80
54202;DHT22;40108;53.152;5.844;2024-02-23T11:13:36;6.20;91.50
54202;DHT22;40108;53.152;5.844;2024-02-23T11:16:03;6.20;91.60
54202;DHT22;40108;53.152;5.844;2024-02-23T11:18:29;6.30;91.90
54202;DHT22;40108;53.152;5.844;2024-02-23T11:20:58;6.40;91.90
54202;DHT22;40108;53.152;5.844;2024-02-23T11:23:24;6.40;92.10
54202;DHT22;40108;53.152;5.844;2024-02-23T11:28:28;6.60;91.10
54202;DHT22;40108;53.152;5.844;2024-02-23T11:30:54;6.60;90.90
54202;DHT22;40108;53.152;5.844;2024-02-23T11:33:26;6.70;90.70
54202;DHT22;40108;53.152;5.844;2024-02-23T11:35:52;6.80;90.60
54202;DHT22;40108;53.152;5.844;2024-02-23T11:38:19;6.80;90.30
54202;DHT22;40108;53.152;5.844;2024-02-23T11:40:47;6.90;89.80
54202;DHT22;40108;53.152;5.844;2024-02-23T11:43:14;6.90;89.10
54202;DHT22;40108;53.152;5.844;2024-02-23T11:45:40;6.90;90.10
54202;DHT22;40108;53.152;5.844;2024-02-23T11:48:07;7.00;89.90
54202;DHT22;40108;53.152;5.844;2024-02-23T11:50:33;7.00;89.50
54202;DHT22;40108;53.152;5.844;2024-02-23T11:52:59;7.00;89.20
54202;DHT22;40108;53.152;5.844;2024-02-23T11:55:27;7.00;89.40
54202;DHT22;40108;53.152;5.844;2024-02-23T11:57:54;7.00;89.30
54202;DHT22;40108;53.152;5.844;2024-02-23T12:00:19;7.00;89.50
54202;DHT22;40108;53.152;5.844;2024-02-23T12:02:45;7.00;89.80
54202;DHT22;40108;53.152;5.844;2024-02-23T12:05:14;7.00;90.00
54202;DHT22;40108;53.152;5.844;2024-02-23T12:07:40;7.00;89.80
54202;DHT22;40108;53.152;5.844;2024-02-23T12:10:07;7.10;90.00
54202;DHT22;40108;53.152;5.844;2024-02-23T12:12:33;7.20;89.90
54202;DHT22;40108;53.152;5.844;2024-02-23T12:14:59;7.20;90.00
54202;DHT22;40108;53.152;5.844;2024-02-23T12:17:25;7.20;89.70
54202;DHT22;40108;53.152;5.844;2024-02-23T12:20:10;7.20;89.60
54202;DHT22;40108;53.152;5.844;2024-02-23T12:22:36;7.10;90.20
54202;DHT22;40108;53.152;5.844;2024-02-23T12:25:02;7.00;90.80
54202;DHT22;40108;53.152;5.844;2024-02-23T12:27:28;6.90;91.10
54202;DHT22;40108;53.152;5.844;2024-02-23T12:29:55;6.80;91.50
54202;DHT22;40108;53.152;5.844;2024-02-23T12:32:21;6.80;91.70
54202;DHT22;40108;53.152;5.844;2024-02-23T12:34:47;6.70;91.90
54202;DHT22;40108;53.152;5.844;2024-02-23T12:37:20;6.60;92.00
54202;DHT22;40108;53.152;5.844;2024-02-23T12:39:48;6.50;91.90
54202;DHT22;40108;53.152;5.844;2024-02-23T12:42:13;6.30;92.00
54202;DHT22;40108;53.152;5.844;2024-02-23T12:44:39;6.20;92.20
54202;DHT22;40108;53.152;5.844;2024-02-23T12:47:05;6.20;92.60
54202;DHT22;40108;53.152;5.844;2024-02-23T12:49:30;6.20;92.90
54202;DHT22;40108;53.152;5.844;2024-02-23T12:51:57;6.30;93.50
54202;DHT22;40108;53.152;5.844;2024-02-23T12:54:22;6.60;94.00
54202;DHT22;40108;53.152;5.844;2024-02-23T12:56:48;6.90;93.90
54202;DHT22;40108;53.152;5.844;2024-02-23T12:59:15;6.80;93.70
54202;DHT22;40108;53.152;5.844;2024-02-23T13:01:41;6.80;93.30
54202;DHT22;40108;53.152;5.844;2024-02-23T13:04:06;6.70;93.20
54202;DHT22;40108;53.152;5.844;2024-02-23T13:06:38;6.70;93.20
54202;DHT22;40108;53.152;5.844;2024-02-23T13:09:05;6.70;93.20
54202;DHT22;40108;53.152;5.844;2024-02-23T13:11:34;6.80;93.60
54202;DHT22;40108;53.152;5.844;2024-02-23T13:14:00;7.10;93.80
54202;DHT22;40108;53.152;5.844;2024-02-23T13:16:27;7.20;93.50
54202;DHT22;40108;53.152;5.844;2024-02-23T13:18:53;7.30;92.80
54202;DHT22;40108;53.152;5.844;2024-02-23T13:21:19;7.20;92.20
54202;DHT22;40108;53.152;5.844;2024-02-23T13:23:44;7.20;92.00
54202;DHT22;40108;53.152;5.844;2024-02-23T13:26:10;7.10;91.90
54202;DHT22;40108;53.152;5.844;2024-02-23T13:28:36;7.10;91.90
54202;DHT22;40108;53.152;5.844;2024-02-23T13:31:02;7.00;91.90
54202;DHT22;40108;53.152;5.844;2024-02-23T13:33:28;6.90;91.90
54202;DHT22;40108;53.152;5.844;2024-02-23T13:35:54;6.80;92.20
54202;DHT22;40108;53.152;5.844;2024-02-23T13:38:20;6.90;92.60
54202;DHT22;40108;53.152;5.844;2024-02-23T13:40:47;7.00;92.70
54202;DHT22;40108;53.152;5.844;2024-02-23T13:43:12;7.10;92.70
54202;DHT22;40108;53.152;5.844;2024-02-23T13:45:52;7.20;92.80
54202;DHT22;40108;53.152;5.844;2024-02-23T13:48:18;7.10;92.40
54202;DHT22;40108;53.152;5.844;2024-02-23T13:50:45;7.20;92.30
54202;DHT22;40108;53.152;5.844;2024-02-23T13:53:12;7.20;92.10
54202;DHT22;40108;53.152;5.844;2024-02-23T13:55:38;7.20;92.10
54202;DHT22;40108;53.152;5.844;2024-02-23T13:58:04;7.40;91.90
54202;DHT22;40108;53.152;5.844;2024-02-23T14:00:30;7.40;91.90
54202;DHT22;40108;53.152;5.844;2024-02-23T14:02:59;7.50;91.40
54202;DHT22;40108;53.152;5.844;2024-02-23T14:05:25;7.60;91.20
54202;DHT22;40108;53.152;5.844;2024-02-23T14:07:51;7.70;90.60
54202;DHT22;40108;53.152;5.844;2024-02-23T14:10:18;7.70;90.20
54202;DHT22;40108;53.152;5.844;2024-02-23T14:12:44;7.70;90.10
54202;DHT22;40108;53.152;5.844;2024-02-23T14:15:10;7.80;89.50
54202;DHT22;40108;53.152;5.844;2024-02-23T14:17:36;7.80;89.20
54202;DHT22;40108;53.152;5.844;2024-02-23T14:20:02;7.70;88.90
54202;DHT22;40108;53.152;5.844;2024-02-23T14:22:29;7.70;88.80
54202;DHT22;40108;53.152;5.844;2024-02-23T14:24:55;7.70;89.00
54202;DHT22;40108;53.152;5.844;2024-02-23T14:27:21;7.80;89.00
54202;DHT22;40108;53.152;5.844;2024-02-23T14:29:46;7.80;89.10
54202;DHT22;40108;53.152;5.844;2024-02-23T14:32:16;7.70;89.00
54202;DHT22;40108;53.152;5.844;2024-02-23T14:34:43;7.70;89.30
54202;DHT22;40108;53.152;5.844;2024-02-23T14:37:09;7.70;89.20
54202;DHT22;40108;53.152;5.844;2024-02-23T14:39:34;7.70;89.20
54202;DHT22;40108;53.152;5.844;2024-02-23T14:42:00;7.70;89.20
54202;DHT22;40108;53.152;5.844;2024-02-23T14:44:26;7.70;89.50
54202;DHT22;40108;53.152;5.844;2024-02-23T14:46:52;7.70;89.60
54202;DHT22;40108;53.152;5.844;2024-02-23T14:49:18;7.80;89.60
54202;DHT22;40108;53.152;5.844;2024-02-23T14:51:43;7.80;89.30
54202;DHT22;40108;53.152;5.844;2024-02-23T14:54:11;7.70;88.50
54202;DHT22;40108;53.152;5.844;2024-02-23T14:56:38;7.70;88.80
54202;DHT22;40108;53.152;5.844;2024-02-23T14:59:06;7.70;89.00
54202;DHT22;40108;53.152;5.844;2024-02-23T15:01:38;7.60;89.20
54202;DHT22;40108;53.152;5.844;2024-02-23T15:04:06;7.50;88.10
54202;DHT22;40108;53.152;5.844;2024-02-23T15:06:32;7.50;87.70
54202;DHT22;40108;53.152;5.844;2024-02-23T15:08:58;7.50;87.80
54202;DHT22;40108;53.152;5.844;2024-02-23T15:11:24;7.50;87.70
54202;DHT22;40108;53.152;5.844;2024-02-23T15:13:50;7.50;87.70
54202;DHT22;40108;53.152;5.844;2024-02-23T15:16:17;7.50;87.50
54202;DHT22;40108;53.152;5.844;2024-02-23T15:18:42;7.40;87.80
54202;DHT22;40108;53.152;5.844;2024-02-23T15:21:08;7.40;88.10
54202;DHT22;40108;53.152;5.844;2024-02-23T15:23:34;7.40;88.60
54202;DHT22;40108;53.152;5.844;2024-02-23T15:26:00;7.40;88.90
54202;DHT22;40108;53.152;5.844;2024-02-23T15:28:25;7.40;89.10
54202;DHT22;40108;53.152;5.844;2024-02-23T15:30:51;7.50;89.30
54202;DHT22;40108;53.152;5.844;2024-02-23T15:33:18;7.50;89.50
54202;DHT22;40108;53.152;5.844;2024-02-23T15:35:44;7.60;89.70
54202;DHT22;40108;53.152;5.844;2024-02-23T15:38:10;7.50;89.70
54202;DHT22;40108;53.152;5.844;2024-02-23T15:40:35;7.60;89.80